Time;durP1;ratioP1;P1;durP2;ratioP2;P2;SDS_P1;SDS_P2;PMS_P1;PMS_P2;Temp;Humidity;BMP_temperature;BMP_pressure;BME280_temperature;BME280_humidity;BME280_pressure;Samples;Min_cycle;Max_cycle;Signal;HPM_P1;HPM_P2
2023/08/10 00:01:04;;;;;;;81.45;76.00;;;;;;;12.96;90.56;100549.16;1824407;78;25529;-47
2023/08/10 00:03:31;;;;;;;80.80;75.45;;;;;;;12.94;90.51;100551.41;1826327;78;25403;-46
2023/08/10 00:05:58;;;;;;;82.80;77.47;;;;;;;12.93;90.66;100545.72;1830613;78;25790;-45
2023/08/10 00:08:25;;;;;;;79.62;74.40;;;;;;;12.91;91.04;100544.45;1830558;77;25529;-48
2023/08/10 00:10:51;;;;;;;80.85;75.55;;;;;;;12.91;91.27;100549.31;1830466;78;27582;-46
2023/08/10 00:13:17;;;;;;;83.40;77.70;;;;;;;12.86;91.33;100546.19;1830435;77;25359;-46
2023/08/10 00:15:44;;;;;;;81.12;75.78;;;;;;;12.88;91.02;100550.73;1830058;78;25432;-49
2023/08/10 00:18:10;;;;;;;78.75;73.67;;;;;;;12.85;90.69;100546.50;1829906;78;25495;-46
2023/08/10 00:20:36;;;;;;;80.65;75.45;;;;;;;12.84;91.00;100553.86;1829981;77;25395;-47
2023/08/10 00:23:03;;;;;;;78.97;73.78;;;;;;;12.83;91.38;100552.81;1829844;77;27536;-50
2023/08/10 00:25:30;;;;;;;81.08;75.65;;;;;;;12.81;91.39;100554.48;1829833;78;25568;-46
2023/08/10 00:27:56;;;;;;;79.65;74.17;;;;;;;12.80;91.01;100554.80;1829974;78;25449;-47
2023/08/10 00:30:22;;;;;;;80.32;75.00;;;;;;;12.77;91.13;100547.29;1829908;78;25545;-47
2023/08/10 00:32:48;;;;;;;82.67;77.08;;;;;;;12.75;91.25;100553.03;1830002;77;25541;-46
2023/08/10 00:35:15;;;;;;;80.70;74.95;;;;;;;12.74;90.64;100557.45;1830034;78;27532;-46
2023/08/10 00:37:41;;;;;;;78.62;73.30;;;;;;;12.70;90.47;100564.86;1829888;78;25569;-46
2023/08/10 00:40:12;;;;;;;81.85;76.42;;;;;;;12.67;90.12;100559.27;1829966;77;25547;-47
2023/08/10 00:42:37;;;;;;;81.12;75.47;;;;;;;12.63;89.78;100561.00;1829767;77;25467;-46
2023/08/10 00:45:06;;;;;;;81.63;75.78;;;;;;;12.57;89.94;100564.42;1829857;77;25420;-46
2023/08/10 00:47:33;;;;;;;80.15;75.03;;;;;;;12.54;89.86;100566.97;1841430;77;27449;-50
2023/08/10 00:50:01;;;;;;;79.62;74.22;;;;;;;12.50;90.07;100568.16;1829822;77;25364;-48
2023/08/10 00:52:28;;;;;;;79.80;74.40;;;;;;;12.45;90.19;100565.03;1813805;78;25455;-46
2023/08/10 00:54:55;;;;;;;83.22;77.27;;;;;;;12.42;90.41;100562.94;1841382;77;25660;-45
2023/08/10 00:57:22;;;;;;;80.15;74.67;;;;;;;12.37;89.73;100576.65;1813646;78;25455;-47
2023/08/10 00:59:49;;;;;;;81.10;75.80;;;;;;;12.32;89.40;100578.14;1829864;77;27443;-46
2023/08/10 01:02:16;;;;;;;81.72;76.20;;;;;;;12.27;89.20;100578.28;1829783;78;25443;-46
2023/08/10 01:04:42;;;;;;;80.77;74.95;;;;;;;12.22;89.50;100575.15;1834306;77;25561;-47
2023/08/10 01:07:35;;;;;;;82.33;76.85;;;;;;;12.18;89.44;100580.97;1823743;78;25618;-48
2023/08/10 01:10:12;;;;;;;79.53;74.30;;;;;;;12.14;89.58;100582.72;1775347;80;25767;-46
2023/08/10 01:12:55;;;;;;;81.67;76.20;;;;;;;12.10;89.98;100587.14;1735420;82;29635;-46
2023/08/10 01:15:44;;;;;;;82.33;76.90;;;;;;;12.09;89.80;100586.91;1774738;80;25457;-45
2023/08/10 01:18:15;;;;;;;81.63;76.20;;;;;;;12.05;90.26;100592.14;1736077;82;25496;-46
2023/08/10 01:20:43;;;;;;;83.27;77.32;;;;;;;12.06;91.39;100597.81;1775350;80;25720;-46
2023/08/10 01:23:35;;;;;;;81.92;76.42;;;;;;;12.08;91.97;100599.66;1735892;82;25636;-47
2023/08/10 01:26:02;;;;;;;82.75;76.92;;;;;;;12.09;92.43;100600.47;1775282;80;27505;-45
2023/08/10 01:28:32;;;;;;;80.77;75.52;;;;;;;12.11;92.65;100607.17;1735798;82;25546;-47
2023/08/10 01:31:00;;;;;;;80.90;75.37;;;;;;;12.11;92.59;100611.23;1735909;82;25518;-47
2023/08/10 01:33:28;;;;;;;85.62;79.42;;;;;;;12.11;92.76;100613.95;1775286;80;25598;-46
2023/08/10 01:35:54;;;;;;;85.22;79.27;;;;;;;12.11;92.63;100612.59;1735930;82;25515;-47
2023/08/10 01:38:20;;;;;;;84.72;78.72;;;;;;;12.09;92.24;100616.74;1775354;80;27472;-45
2023/08/10 01:40:47;;;;;;;85.62;79.17;;;;;;;12.06;91.91;100618.71;1735773;82;25560;-46
2023/08/10 01:43:14;;;;;;;83.27;77.62;;;;;;;12.02;92.01;100617.19;1687428;82;25493;-46
2023/08/10 01:45:45;;;;;;;84.15;78.57;;;;;;;12.02;92.05;100611.77;1775339;80;25412;-46
2023/08/10 01:48:17;;;;;;;85.30;79.60;;;;;;;12.00;92.03;100611.81;1755309;81;25505;-46
2023/08/10 01:50:48;;;;;;;80.12;74.70;;;;;;;11.97;92.17;100609.18;1776235;80;27589;-48
2023/08/10 01:53:29;;;;;;;82.62;77.08;;;;;;;11.99;92.57;100614.30;1776234;80;25674;-45
2023/08/10 01:55:56;;;;;;;83.35;77.75;;;;;;;11.99;92.43;100611.02;1776352;80;25378;-47
2023/08/10 01:58:23;;;;;;;83.80;77.80;;;;;;;11.96;92.33;100609.72;1776336;80;25593;-46
2023/08/10 02:00:51;;;;;;;81.78;76.07;;;;;;;11.94;92.43;100607.88;1756293;81;25662;-46
2023/08/10 02:03:19;;;;;;;85.15;79.20;;;;;;;11.93;92.44;100608.97;1770282;81;27471;-46
2023/08/10 02:05:45;;;;;;;83.50;77.75;;;;;;;11.92;92.53;100611.45;1761722;81;25845;-46
2023/08/10 02:08:13;;;;;;;59.63;55.48;;;;;;;11.90;92.28;100608.23;1793230;80;25459;-46
2023/08/10 02:10:39;;;;;;;78.78;73.25;;;;;;;11.87;92.24;100612.91;1761842;81;25454;-46
2023/08/10 02:13:06;;;;;;;80.42;75.08;;;;;;;11.86;92.35;100614.01;1793299;80;25555;-47
2023/08/10 02:15:32;;;;;;;82.02;76.65;;;;;;;11.85;92.34;100604.30;1761863;81;27386;-46
2023/08/10 02:17:58;;;;;;;85.07;79.13;;;;;;;11.76;92.67;100592.58;1773245;80;25448;-45
2023/08/10 02:20:25;;;;;;;78.57;72.45;;;;;;;;;;1761818;81;25445;-46
2023/08/10 02:22:52;;;;;;;8.23;7.83;;;;;;;;;;1773273;80;25523;-46
2023/08/10 02:25:20;;;;;;;10.95;10.40;;;;;;;;;;1773259;80;25516;-45
2023/08/10 23:20:44;;;;;;;4.92;3.72;;;;;;;16.61;62.32;100839.26;1866297;76;27711;-48
2023/08/10 23:23:10;;;;;;;5.22;4.30;;;;;;;16.42;63.17;100834.88;1824150;78;25716;-48
2023/08/10 23:25:38;;;;;;;8.78;3.87;;;;;;;16.29;63.16;100834.59;1824476;78;27482;-49
2023/08/10 23:28:06;;;;;;;9.88;4.20;;;;;;;16.15;63.58;100830.20;1824385;78;25369;-48
2023/08/10 23:30:34;;;;;;;6.12;5.53;;;;;;;15.99;63.62;100830.02;1824618;78;25504;-51
2023/08/10 23:33:01;;;;;;;57.58;53.48;;;;;;;15.85;64.02;100827.55;1824420;78;25819;-51
2023/08/10 23:35:28;;;;;;;78.42;73.20;;;;;;;15.73;64.58;100826.05;1824437;78;25600;-49
2023/08/10 23:37:56;;;;;;;79.50;74.55;;;;;;;15.60;64.71;100825.75;1824405;78;27493;-47
2023/08/10 23:40:22;;;;;;;83.17;77.55;;;;;;;15.51;65.07;100823.08;1824343;78;25574;-49
2023/08/10 23:42:50;;;;;;;43.10;40.23;;;;;;;15.43;65.15;100826.65;1803962;78;25550;-48
2023/08/10 23:45:16;;;;;;;73.78;69.20;;;;;;;15.35;65.38;100831.58;1824386;78;25495;-53
2023/08/10 23:47:43;;;;;;;79.95;74.85;;;;;;;15.25;65.75;100825.92;1824393;78;25360;-50
2023/08/10 23:50:10;;;;;;;80.25;75.15;;;;;;;15.13;65.33;100834.21;1803614;78;27540;-49
2023/08/10 23:52:38;;;;;;;80.28;75.35;;;;;;;15.04;65.76;100828.58;1824313;78;25579;-49
2023/08/10 23:55:08;;;;;;;83.10;77.62;;;;;;;14.94;66.29;100826.42;1824388;78;25412;-49
2023/08/10 23:57:36;;;;;;;42.98;40.20;;;;;;;14.86;66.94;100825.88;1824343;78;25562;-48
